createdAt,value
2023-05-04T10:39:53.951Z,101695.59
2023-05-04T10:42:21.659Z,101695.03
2023-05-04T10:44:58.016Z,101690.72
2023-05-04T10:47:32.402Z,101687.00
2023-05-04T10:50:04.824Z,101690.31
2023-05-04T10:52:33.014Z,101690.78
2023-05-04T10:55:01.482Z,101685.97
2023-05-04T10:57:29.143Z,101674.22
2023-05-04T10:59:57.598Z,101676.78
2023-05-04T11:02:28.849Z,101671.84
2023-05-04T11:05:10.038Z,101669.59
2023-05-04T11:07:38.271Z,101656.22
2023-05-04T11:10:20.248Z,101664.00
2023-05-04T11:12:46.949Z,101661.28
2023-05-04T11:15:14.038Z,101667.81
2023-05-04T11:17:48.742Z,101679.72
2023-05-04T11:20:26.269Z,101679.88
2023-05-04T11:22:54.025Z,101672.66
2023-05-04T11:25:28.328Z,101673.03
2023-05-04T11:27:55.282Z,101678.22
2023-05-04T11:30:22.258Z,101675.00
2023-05-04T11:32:51.760Z,101661.94
2023-05-04T11:35:22.763Z,101670.56
2023-05-04T11:37:50.639Z,101667.69
2023-05-04T11:40:19.852Z,101675.00
2023-05-04T11:42:47.050Z,101669.09
2023-05-04T11:45:23.008Z,101661.84
2023-05-04T11:47:51.680Z,101663.84
2023-05-04T11:50:20.517Z,101670.78
2023-05-04T11:52:48.223Z,101657.94
2023-05-04T11:55:29.219Z,101653.31
2023-05-04T11:58:02.535Z,101652.03
2023-05-04T12:00:46.149Z,101650.25
2023-05-04T12:03:17.713Z,101640.00
2023-05-04T12:05:48.210Z,101639.25
2023-05-04T12:08:42.284Z,101632.53
2023-05-04T12:11:25.665Z,101634.66
2023-05-04T12:14:07.742Z,101635.25
2023-05-04T12:16:34.854Z,101638.63
2023-05-04T12:19:13.111Z,101636.84
2023-05-04T12:22:09.863Z,101637.91
2023-05-04T12:24:36.702Z,101633.53
2023-05-04T12:27:04.985Z,101636.13
2023-05-04T12:29:31.766Z,101633.19
2023-05-04T12:31:58.623Z,101624.38
2023-05-04T12:34:25.366Z,101631.09
2023-05-04T12:36:52.312Z,101628.47
2023-05-04T12:39:19.095Z,101633.06
2023-05-04T12:41:45.783Z,101616.47
2023-05-04T12:44:14.326Z,101609.59
2023-05-04T12:46:41.084Z,101611.16
2023-05-04T12:49:07.875Z,101613.97
2023-05-04T12:51:34.685Z,101609.13
2023-05-04T12:54:01.471Z,101621.59
2023-05-04T12:56:28.385Z,101608.19
2023-05-04T12:58:55.240Z,101610.53
2023-05-04T13:01:22.281Z,101611.81
2023-05-04T13:03:49.309Z,101610.66
2023-05-04T13:06:16.324Z,101616.03
2023-05-04T13:08:44.520Z,101606.03
2023-05-04T13:11:11.254Z,101609.66
2023-05-04T13:13:37.987Z,101607.22
2023-05-04T13:16:05.925Z,101607.81
2023-05-04T13:18:33.525Z,101613.00
2023-05-04T13:21:00.721Z,101603.06
2023-05-04T13:23:27.599Z,101610.44
2023-05-04T13:25:54.828Z,101607.13
2023-05-04T13:28:21.597Z,101612.31
2023-05-04T13:30:48.768Z,101593.88
2023-05-04T13:33:27.916Z,101603.09
2023-05-04T13:35:56.949Z,101602.03
2023-05-04T13:38:23.728Z,101595.69
2023-05-04T13:40:50.689Z,101589.28
2023-05-04T13:43:17.457Z,101591.09
2023-05-04T13:45:44.336Z,101598.88
2023-05-04T13:48:11.395Z,101581.56
2023-05-04T13:50:38.289Z,101579.28
2023-05-04T13:53:05.064Z,101570.13
2023-05-04T13:55:32.863Z,101583.03
2023-05-04T13:57:59.728Z,101578.44
2023-05-04T14:00:27.069Z,101579.53
2023-05-04T14:02:54.294Z,101581.19
2023-05-04T14:05:21.436Z,101576.88
2023-05-04T14:07:48.246Z,101570.25
2023-05-04T14:10:15.057Z,101568.81
2023-05-04T14:12:42.967Z,101564.91
2023-05-04T14:15:10.155Z,101550.50
2023-05-04T14:17:38.082Z,101553.88
2023-05-04T14:20:06.284Z,101558.00
2023-05-04T14:22:34.187Z,101553.84
2023-05-04T14:25:05.520Z,101554.13
2023-05-04T14:27:35.400Z,101547.16
2023-05-04T14:30:03.855Z,101546.97
2023-05-04T14:32:30.844Z,101549.88
2023-05-04T14:35:11.271Z,101545.56
2023-05-04T14:37:39.681Z,101542.50
2023-05-04T14:40:11.159Z,101538.28
2023-05-04T14:42:38.580Z,101542.63
2023-05-04T14:45:07.166Z,101535.97
2023-05-04T14:47:34.683Z,101523.09
2023-05-04T14:50:02.280Z,101524.56
2023-05-04T14:52:29.194Z,101517.84
2023-05-04T14:54:56.251Z,101519.38
2023-05-04T14:57:23.043Z,101527.59
2023-05-04T14:59:49.751Z,101525.94
2023-05-04T15:02:17.629Z,101522.41
2023-05-04T15:04:45.841Z,101525.47
2023-05-04T15:07:14.533Z,101529.81
2023-05-04T15:09:41.329Z,101534.50
2023-05-04T15:12:08.706Z,101529.44
2023-05-04T15:14:39.015Z,101531.69
2023-05-04T15:17:07.068Z,101530.97
2023-05-04T15:19:37.632Z,101528.53
2023-05-04T15:22:05.312Z,101519.91
2023-05-04T15:24:32.251Z,101518.47
2023-05-04T15:26:59.205Z,101521.03
2023-05-04T15:29:26.096Z,101521.31
2023-05-04T15:31:52.941Z,101513.44
2023-05-04T15:34:19.662Z,101520.25
2023-05-04T15:36:46.924Z,101514.59
2023-05-04T15:39:13.737Z,101515.63
2023-05-04T15:41:42.624Z,101511.56
2023-05-04T15:44:09.491Z,101504.13
2023-05-04T15:46:36.326Z,101507.47
2023-05-04T15:49:03.187Z,101500.84
2023-05-04T15:51:31.998Z,101508.72
2023-05-04T15:53:59.760Z,101515.88
2023-05-04T15:56:26.963Z,101512.22
2023-05-04T15:58:53.789Z,101506.00
2023-05-04T16:01:20.547Z,101510.63
2023-05-04T16:03:47.539Z,101508.13
2023-05-04T16:06:15.729Z,101513.16
2023-05-04T16:08:42.634Z,101505.31
2023-05-04T16:11:09.586Z,101507.03
2023-05-04T16:13:36.704Z,101510.47
2023-05-04T16:16:04.972Z,101517.97
2023-05-04T16:18:32.026Z,101516.78
2023-05-04T16:20:58.958Z,101513.34
2023-05-04T16:23:26.838Z,101500.38
2023-05-04T16:25:53.654Z,101505.13
2023-05-04T16:28:20.594Z,101501.19
2023-05-04T16:30:49.546Z,101499.97
2023-05-04T16:33:16.286Z,101498.50
2023-05-04T16:35:42.980Z,101488.22
2023-05-04T16:38:12.323Z,101491.31
2023-05-04T16:40:41.137Z,101500.69
2023-05-04T16:43:08.225Z,101497.00
2023-05-04T16:45:34.960Z,101499.09
2023-05-04T16:48:01.811Z,101500.09
2023-05-04T16:50:28.729Z,101497.25
2023-05-04T16:52:55.488Z,101495.75
2023-05-04T16:55:22.442Z,101492.06
2023-05-04T16:57:49.538Z,101504.88
2023-05-04T17:00:17.047Z,101497.41
2023-05-04T17:02:43.941Z,101504.75
2023-05-04T17:05:10.872Z,101503.53
2023-05-04T17:07:39.744Z,101504.97
2023-05-04T17:10:08.148Z,101503.34
2023-05-04T17:12:35.959Z,101501.19
2023-05-04T17:15:03.626Z,101509.84
2023-05-04T17:17:30.403Z,101503.09
2023-05-04T17:19:57.314Z,101493.38
2023-05-04T17:22:25.361Z,101498.81
2023-05-04T17:24:52.515Z,101501.72
2023-05-04T17:27:19.308Z,101503.09
2023-05-04T17:29:46.116Z,101509.44
2023-05-04T17:32:12.964Z,101504.59
2023-05-04T17:34:39.815Z,101510.66
2023-05-04T17:37:06.512Z,101505.75
2023-05-04T17:39:33.229Z,101503.69
2023-05-04T17:42:00.081Z,101505.09
2023-05-04T17:44:28.798Z,101504.03
2023-05-04T17:46:55.967Z,101507.72
2023-05-04T17:49:22.757Z,101512.16
2023-05-04T17:51:49.537Z,101509.56
2023-05-04T17:54:17.117Z,101508.41
2023-05-04T17:56:44.046Z,101515.88
2023-05-04T17:59:10.902Z,101511.91
2023-05-04T18:01:37.769Z,101514.84
2023-05-04T18:04:04.855Z,101522.31
2023-05-04T18:06:32.704Z,101520.63
2023-05-04T18:09:00.880Z,101516.81
2023-05-04T18:11:27.863Z,101524.38
2023-05-04T18:13:56.649Z,101517.06
2023-05-04T18:16:24.307Z,101522.25
2023-05-04T18:18:51.391Z,101508.94
2023-05-04T18:21:18.272Z,101515.91
2023-05-04T18:23:45.077Z,101526.31
2023-05-04T18:26:18.366Z,101525.34
2023-05-04T18:28:45.559Z,101528.78
2023-05-04T18:31:12.374Z,101536.19
2023-05-04T18:33:39.155Z,101536.66
2023-05-04T18:36:06.415Z,101531.50
2023-05-04T18:38:34.683Z,101534.81
2023-05-04T18:41:01.529Z,101537.53
2023-05-04T18:43:28.291Z,101546.56
2023-05-04T18:45:55.057Z,101553.19
2023-05-04T18:48:21.989Z,101554.03
2023-05-04T18:50:57.330Z,101552.38
2023-05-04T18:53:24.522Z,101560.13
2023-05-04T18:56:05.594Z,101557.88
2023-05-04T18:58:33.020Z,101558.94
2023-05-04T19:01:00.067Z,101558.56
2023-05-04T19:03:27.371Z,101567.47
2023-05-04T19:05:55.085Z,101575.59
2023-05-04T19:08:21.979Z,101575.47
2023-05-04T19:10:49.410Z,101582.38
2023-05-04T19:13:16.791Z,101579.09
2023-05-04T19:15:43.817Z,101586.59
2023-05-04T19:18:10.888Z,101590.59
2023-05-04T19:20:38.253Z,101586.25
2023-05-04T19:23:05.424Z,101592.72
2023-05-04T19:25:35.187Z,101596.94
2023-05-04T19:28:08.478Z,101592.00
2023-05-04T19:30:38.982Z,101597.88
2023-05-04T19:33:08.462Z,101601.88
2023-05-04T19:35:35.905Z,101605.00
2023-05-04T19:38:03.822Z,101613.22
2023-05-04T19:40:31.139Z,101619.47
2023-05-04T19:42:57.987Z,101625.91
2023-05-04T19:45:24.925Z,101627.66
2023-05-04T19:47:52.492Z,101625.56
2023-05-04T19:50:20.077Z,101637.13
2023-05-04T19:52:47.070Z,101636.66
2023-05-04T19:55:13.902Z,101635.38
2023-05-04T19:57:40.826Z,101644.31
2023-05-04T20:00:09.906Z,101647.84
2023-05-04T20:02:39.986Z,101648.44
2023-05-04T20:05:07.154Z,101659.03
2023-05-04T20:07:33.979Z,101662.34
2023-05-04T20:10:00.872Z,101662.44
2023-05-04T20:12:27.826Z,101659.72
2023-05-04T20:14:54.587Z,101668.31
2023-05-04T20:17:21.643Z,101671.25
2023-05-04T20:19:48.658Z,101662.50
2023-05-04T20:22:16.414Z,101666.25
2023-05-04T20:24:43.443Z,101671.66
2023-05-04T20:27:10.258Z,101675.88
2023-05-04T20:29:37.033Z,101680.78
2023-05-04T20:32:05.676Z,101682.28
2023-05-04T20:34:32.952Z,101684.84
2023-05-04T20:36:59.910Z,101684.69
2023-05-04T20:39:26.693Z,101685.31
2023-05-04T20:41:53.625Z,101677.66
2023-05-04T20:44:20.424Z,101692.28
2023-05-04T20:46:47.219Z,101689.22
2023-05-04T20:49:14.209Z,101686.34
2023-05-04T20:51:41.039Z,101691.75
2023-05-04T20:54:07.922Z,101697.63
2023-05-04T20:56:34.646Z,101690.19
2023-05-04T20:59:01.394Z,101704.13
2023-05-04T21:01:29.589Z,101704.97
2023-05-04T21:03:56.718Z,101706.00
2023-05-04T21:06:24.422Z,101696.47
2023-05-04T21:08:51.342Z,101697.72
2023-05-04T21:11:18.090Z,101692.31
2023-05-04T21:13:44.921Z,101695.25
2023-05-04T21:16:11.813Z,101700.88
2023-05-04T21:18:38.663Z,101698.63
2023-05-04T21:21:05.881Z,101706.13
2023-05-04T21:23:32.741Z,101701.78
2023-05-04T21:26:01.119Z,101706.56
2023-05-04T21:28:28.351Z,101701.63
2023-05-04T21:30:55.557Z,101696.44
2023-05-04T21:33:22.418Z,101699.56
2023-05-04T21:35:49.190Z,101704.13
2023-05-04T21:38:16.041Z,101696.25
2023-05-04T21:40:42.834Z,101697.53
2023-05-04T21:43:09.598Z,101703.97
2023-05-04T21:45:36.351Z,101699.41
2023-05-04T21:48:03.821Z,101708.56
2023-05-04T21:50:49.253Z,101709.22
2023-05-04T21:53:15.973Z,101711.28
2023-05-04T21:55:42.711Z,101712.16
2023-05-04T21:58:09.657Z,101714.84
2023-05-04T22:00:36.757Z,101711.53
2023-05-04T22:03:03.635Z,101706.94
2023-05-04T22:05:30.509Z,101714.03
2023-05-04T22:07:57.329Z,101712.59
2023-05-04T22:10:24.137Z,101717.41
2023-05-04T22:12:51.305Z,101711.38
2023-05-04T22:15:18.052Z,101716.78
2023-05-04T22:17:44.843Z,101720.56
2023-05-04T22:20:12.444Z,101714.34
2023-05-04T22:22:39.117Z,101716.81
2023-05-04T22:25:06.262Z,101718.06
2023-05-04T22:27:33.028Z,101720.56
2023-05-04T22:29:59.875Z,101709.75
2023-05-04T22:32:26.643Z,101718.91
2023-05-04T22:34:55.856Z,101722.84
2023-05-04T22:37:22.586Z,101722.25
2023-05-04T22:39:49.269Z,101723.31
2023-05-04T22:42:16.075Z,101722.75
2023-05-04T22:44:42.754Z,101719.84
2023-05-04T22:47:09.670Z,101725.88
2023-05-04T22:49:36.471Z,101727.72
2023-05-04T22:52:06.148Z,101729.59
2023-05-04T22:54:32.883Z,101732.31
2023-05-04T22:56:59.585Z,101731.47
2023-05-04T22:59:26.287Z,101726.91
2023-05-04T23:01:53.007Z,101728.75
2023-05-04T23:04:19.773Z,101719.44
2023-05-04T23:06:46.632Z,101725.69
2023-05-04T23:09:14.679Z,101721.94
2023-05-04T23:11:41.825Z,101722.75
2023-05-04T23:14:08.605Z,101725.91
2023-05-04T23:16:35.364Z,101727.75
2023-05-04T23:19:02.093Z,101719.66
2023-05-04T23:21:28.784Z,101722.56
2023-05-04T23:23:56.174Z,101719.06
2023-05-04T23:26:23.730Z,101718.44
2023-05-04T23:28:50.434Z,101717.84
2023-05-04T23:31:17.224Z,101716.78
2023-05-04T23:33:44.168Z,101713.47
2023-05-04T23:36:10.989Z,101710.78
2023-05-04T23:38:37.770Z,101709.75
2023-05-04T23:41:04.746Z,101708.28
2023-05-04T23:43:31.954Z,101700.41
2023-05-04T23:46:03.577Z,101705.00
2023-05-04T23:48:32.003Z,101698.97
2023-05-04T23:51:04.571Z,101692.75
2023-05-04T23:53:32.154Z,101695.88
2023-05-04T23:56:04.540Z,101695.25
2023-05-04T23:58:33.334Z,101695.47
